createdAt,value
2022-11-22T00:00:13.812Z,98763.19
2022-11-22T00:02:41.645Z,98767.81
2022-11-22T00:05:09.746Z,98756.28
2022-11-22T00:07:38.158Z,98756.75
2022-11-22T00:10:06.134Z,98762.81
2022-11-22T00:12:33.946Z,98752.38
2022-11-22T00:15:01.986Z,98755.53
2022-11-22T00:17:29.833Z,98763.09
2022-11-22T00:19:57.572Z,98760.44
2022-11-22T00:22:25.659Z,98758.38
2022-11-22T00:24:53.885Z,98764.06
2022-11-22T00:27:21.699Z,98762.38
2022-11-22T00:29:49.516Z,98759.03
2022-11-22T00:32:17.306Z,98752.16
2022-11-22T00:34:45.159Z,98745.88
2022-11-22T00:37:13.073Z,98755.13
2022-11-22T00:39:40.873Z,98754.28
2022-11-22T00:42:08.966Z,98748.84
2022-11-22T00:44:36.755Z,98747.16
2022-11-22T00:47:04.716Z,98748.84
2022-11-22T00:49:32.838Z,98745.88
2022-11-22T00:52:00.843Z,98751.56
2022-11-22T00:54:28.786Z,98753.47
2022-11-22T00:56:56.637Z,98744.44
2022-11-22T00:59:24.400Z,98744.44
2022-11-22T01:01:52.321Z,98752.59
2022-11-22T01:04:20.088Z,98734.41
2022-11-22T01:06:47.895Z,98737.97
2022-11-22T01:09:15.768Z,98736.69
2022-11-22T01:11:44.501Z,98725.78
2022-11-22T01:14:12.392Z,98730.16
2022-11-22T01:16:40.150Z,98731.16
2022-11-22T01:19:08.151Z,98733.50
2022-11-22T01:21:35.979Z,98742.50
2022-11-22T01:24:03.919Z,98742.50
2022-11-22T01:26:31.700Z,98751.13
2022-11-22T01:28:59.536Z,98754.88
2022-11-22T01:31:27.316Z,98753.47
2022-11-22T01:33:58.062Z,98747.16
2022-11-22T01:36:25.879Z,98752.41
2022-11-22T01:38:53.713Z,98743.41
2022-11-22T01:41:21.615Z,98748.22
2022-11-22T01:43:49.511Z,98747.41
2022-11-22T01:46:17.314Z,98745.50
2022-11-22T01:48:45.060Z,98730.84
2022-11-22T01:51:12.824Z,98717.22
2022-11-22T01:53:40.630Z,98718.28
2022-11-22T01:56:08.508Z,98710.75
2022-11-22T01:58:36.272Z,98708.03
2022-11-22T02:01:04.283Z,98701.97
2022-11-22T02:03:32.084Z,98699.47
2022-11-22T02:05:59.820Z,98682.56
2022-11-22T02:08:27.668Z,98681.69
2022-11-22T02:10:55.503Z,98687.38
2022-11-22T02:13:23.401Z,98680.25
2022-11-22T02:15:51.180Z,98684.03
2022-11-22T02:18:18.989Z,98682.81
2022-11-22T02:20:46.753Z,98670.28
2022-11-22T02:23:14.586Z,98668.84
2022-11-22T02:25:42.361Z,98659.03
2022-11-22T02:28:10.296Z,98640.81
2022-11-22T02:30:38.151Z,98641.00
2022-11-22T02:33:06.062Z,98652.13
2022-11-22T02:35:33.829Z,98649.63
2022-11-22T02:38:01.596Z,98655.69
2022-11-22T02:40:29.399Z,98658.41
2022-11-22T02:42:57.180Z,98655.06
2022-11-22T02:45:25.038Z,98651.28
2022-11-22T02:47:52.909Z,98656.13
2022-11-22T02:50:20.730Z,98651.53
2022-11-22T02:52:48.718Z,98654.84
2022-11-22T02:55:16.510Z,98648.56
2022-11-22T02:57:44.356Z,98643.97
2022-11-22T03:00:12.098Z,98650.25
2022-11-22T03:02:40.090Z,98653.19
2022-11-22T03:05:07.878Z,98650.25
2022-11-22T03:07:35.888Z,98644.19
2022-11-22T03:10:03.688Z,98643.13
2022-11-22T03:12:31.655Z,98649.41
2022-11-22T03:14:59.474Z,98649.63
2022-11-22T03:17:27.284Z,98648.56
2022-11-22T03:19:55.109Z,98640.66
2022-11-22T03:22:23.168Z,98634.38
2022-11-22T03:24:50.932Z,98629.75
2022-11-22T03:27:18.728Z,98628.94
2022-11-22T03:29:46.755Z,98632.25
2022-11-22T03:32:14.560Z,98633.75
2022-11-22T03:34:42.303Z,98644.66
2022-11-22T03:37:10.095Z,98648.81
2022-11-22T03:39:38.068Z,98641.47
2022-11-22T03:42:05.811Z,98638.97
2022-11-22T03:44:33.614Z,98632.09
2022-11-22T03:47:01.437Z,98626.63
2022-11-22T03:49:29.374Z,98636.47
2022-11-22T03:51:57.643Z,98630.22
2022-11-22T03:54:25.417Z,98631.50
2022-11-22T03:56:53.261Z,98624.81
2022-11-22T03:59:21.180Z,98626.94
2022-11-22T04:01:48.982Z,98625.28
2022-11-22T04:04:16.944Z,98613.59
2022-11-22T04:06:44.743Z,98617.56
2022-11-22T04:09:12.652Z,98603.97
2022-11-22T04:11:40.446Z,98601.47
2022-11-22T04:14:26.126Z,98610.69
2022-11-22T04:16:53.905Z,98601.09
2022-11-22T04:19:21.723Z,98615.31
2022-11-22T04:21:48.447Z,98616.13
2022-11-22T04:24:33.661Z,98607.38
2022-11-22T04:27:01.577Z,98608.44
2022-11-22T04:29:29.592Z,98611.53
2022-11-22T04:32:15.268Z,98616.97
2022-11-22T04:34:43.046Z,98618.63
2022-11-22T04:37:10.836Z,98617.13
2022-11-22T04:39:38.596Z,98620.66
2022-11-22T04:42:24.117Z,98626.09
2022-11-22T04:44:51.978Z,98616.91
2022-11-22T04:47:33.558Z,98604.34
2022-11-22T04:50:01.399Z,98601.88
2022-11-22T04:52:46.688Z,98603.53
2022-11-22T04:55:14.515Z,98604.34
2022-11-22T04:57:42.273Z,98608.97
2022-11-22T05:00:10.057Z,98595.38
2022-11-22T05:02:37.994Z,98602.91
2022-11-22T05:05:05.854Z,98621.94
2022-11-22T05:07:33.874Z,98618.19
2022-11-22T05:10:01.805Z,98631.53
2022-11-22T05:12:29.768Z,98630.72
2022-11-22T05:14:57.551Z,98632.38
2022-11-22T05:17:25.488Z,98629.91
2022-11-22T05:19:53.361Z,98632.81
2022-11-22T05:22:41.914Z,98632.81
2022-11-22T05:25:08.808Z,98638.25
2022-11-22T05:27:36.819Z,98637.44
2022-11-22T05:30:04.656Z,98646.66
2022-11-22T05:32:32.567Z,98652.09
2022-11-22T05:35:00.358Z,98656.69
2022-11-22T05:37:28.381Z,98656.47
2022-11-22T05:39:56.107Z,98649.75
2022-11-22T05:42:24.289Z,98647.88
2022-11-22T05:44:52.120Z,98653.31
2022-11-22T05:47:20.070Z,98650.22
2022-11-22T05:49:47.871Z,98640.38
2022-11-22T05:52:15.974Z,98639.78
2022-11-22T05:54:43.982Z,98652.31
2022-11-22T05:57:11.843Z,98654.41
2022-11-22T05:59:43.954Z,98657.75
2022-11-22T06:02:12.548Z,98661.91
2022-11-22T06:04:40.548Z,98662.13
2022-11-22T06:07:10.176Z,98670.28
2022-11-22T06:09:38.466Z,98661.28
2022-11-22T06:12:06.568Z,98670.13
2022-11-22T06:14:37.340Z,98671.81
2022-11-22T06:17:09.475Z,98673.00
2022-11-22T06:19:37.379Z,98683.28
2022-11-22T06:22:05.221Z,98685.16
2022-11-22T06:24:33.195Z,98682.44
2022-11-22T06:27:01.012Z,98687.66
2022-11-22T06:29:29.247Z,98686.84
2022-11-22T06:32:03.113Z,98689.78
2022-11-22T06:34:31.531Z,98688.50
2022-11-22T06:36:59.348Z,98689.31
2022-11-22T06:39:27.791Z,98687.47
2022-11-22T06:41:55.829Z,98680.94
2022-11-22T06:44:23.589Z,98685.56
2022-11-22T06:46:51.595Z,98691.00
2022-11-22T06:49:19.446Z,98688.28
2022-11-22T06:51:47.365Z,98687.22
2022-11-22T06:54:15.250Z,98692.66
2022-11-22T06:56:43.017Z,98698.91
2022-11-22T06:59:10.904Z,98692.66
2022-11-22T07:01:42.203Z,98690.19
2022-11-22T07:04:10.073Z,98682.84
2022-11-22T07:06:38.687Z,98684.75
2022-11-22T07:09:06.653Z,98674.69
2022-11-22T07:11:34.741Z,98665.47
2022-11-22T07:14:07.508Z,98667.56
2022-11-22T07:16:36.761Z,98675.72
2022-11-22T07:19:04.588Z,98676.78
2022-11-22T07:21:32.611Z,98675.13
2022-11-22T07:24:00.430Z,98673.25
2022-11-22T07:26:28.718Z,98677.84
2022-11-22T07:28:56.661Z,98686.84
2022-11-22T07:31:24.599Z,98689.78
2022-11-22T07:33:52.384Z,98691.03
2022-11-22T07:36:20.109Z,98683.94
2022-11-22T07:38:47.904Z,98692.28
2022-11-22T07:41:15.694Z,98701.50
2022-11-22T07:43:43.496Z,98704.44
2022-11-22T07:46:11.329Z,98708.22
2022-11-22T07:48:39.103Z,98713.88
2022-11-22T07:51:06.927Z,98714.94
2022-11-22T07:53:34.992Z,98715.75
2022-11-22T07:56:03.256Z,98726.44
2022-11-22T07:58:31.057Z,98722.66
2022-11-22T08:00:58.864Z,98734.13
2022-11-22T08:03:29.244Z,98730.81
2022-11-22T08:05:57.299Z,98737.06
2022-11-22T08:08:25.072Z,98735.41
2022-11-22T08:10:52.846Z,98733.31
2022-11-22T08:13:20.587Z,98731.19
2022-11-22T08:15:49.630Z,98734.13
2022-11-22T08:18:17.515Z,98734.13
2022-11-22T08:20:45.340Z,98729.72
2022-11-22T08:23:13.124Z,98733.31
2022-11-22T08:25:40.934Z,98735.78
2022-11-22T08:28:08.640Z,98736.63
2022-11-22T08:30:36.443Z,98734.75
2022-11-22T08:33:04.206Z,98725.97
2022-11-22T08:35:31.957Z,98730.34
2022-11-22T08:37:59.786Z,98727.63
2022-11-22T08:40:27.547Z,98729.31
2022-11-22T08:42:55.611Z,98724.91
2022-11-22T08:45:23.408Z,98734.97
2022-11-22T08:47:52.593Z,98739.56
2022-11-22T08:50:20.423Z,98742.28
2022-11-22T08:52:48.254Z,98734.97
2022-11-22T08:55:16.111Z,98743.34
2022-11-22T08:57:43.902Z,98751.50
2022-11-22T09:00:11.962Z,98760.72
2022-11-22T09:02:39.799Z,98760.50
2022-11-22T09:05:07.578Z,98771.38
2022-11-22T09:10:23.191Z,98779.75
2022-11-22T09:12:50.969Z,98790.63
2022-11-22T09:15:18.748Z,98798.16
2022-11-22T09:17:46.570Z,98792.72
2022-11-22T09:20:14.320Z,98796.50
2022-11-22T09:22:42.041Z,98798.59
2022-11-22T09:25:09.842Z,98797.16
2022-11-22T09:27:37.619Z,98809.91
2022-11-22T09:30:05.390Z,98800.94
2022-11-22T09:32:33.991Z,98794.88
2022-11-22T09:35:02.045Z,98802.19
2022-11-22T09:37:29.863Z,98810.34
2022-11-22T09:39:57.647Z,98804.47
2022-11-22T09:42:25.453Z,98800.09
2022-11-22T09:44:53.311Z,98810.97
2022-11-22T09:47:21.173Z,98810.13
2022-11-22T09:49:49.093Z,98809.09
2022-11-22T09:52:16.846Z,98810.53
2022-11-22T09:54:44.586Z,98810.53
2022-11-22T09:57:12.374Z,98807.00
2022-11-22T09:59:40.158Z,98807.41
2022-11-22T10:02:18.112Z,98813.69
2022-11-22T10:04:47.771Z,98803.84
2022-11-22T10:07:15.651Z,98791.94
2022-11-22T10:09:43.497Z,98789.00
2022-11-22T10:12:11.300Z,98792.53
2022-11-22T10:14:39.074Z,98794.44
2022-11-22T10:17:06.924Z,98791.50
2022-11-22T10:19:34.718Z,98790.44
2022-11-22T10:22:02.526Z,98782.28
2022-11-22T10:24:30.298Z,98788.34
2022-11-22T10:27:01.082Z,98783.72
2022-11-22T10:29:29.031Z,98787.53
2022-11-22T10:31:56.931Z,98795.88
2022-11-22T10:34:24.723Z,98796.13
2022-11-22T10:36:52.491Z,98798.84
2022-11-22T10:39:20.254Z,98807.00
2022-11-22T10:41:48.023Z,98809.91
2022-11-22T10:44:15.837Z,98807.41
2022-11-22T10:46:43.582Z,98804.09
2022-11-22T10:49:11.359Z,98806.81
2022-11-22T10:51:39.206Z,98808.47
2022-11-22T10:54:06.961Z,98803.22
2022-11-22T10:56:34.758Z,98807.63
2022-11-22T10:59:02.585Z,98805.13
2022-11-22T11:01:30.427Z,98804.09
2022-11-22T11:03:58.198Z,98806.19
2022-11-22T11:06:43.507Z,98803.47
2022-11-22T11:12:02.354Z,98805.34
2022-11-22T11:14:30.621Z,98796.59
2022-11-22T11:16:58.726Z,98808.50
2022-11-22T11:19:26.573Z,98809.53
2022-11-22T11:21:54.519Z,98807.66
2022-11-22T11:24:22.395Z,98804.13
2022-11-22T11:26:50.185Z,98804.13
2022-11-22T11:29:18.072Z,98799.50
2022-11-22T11:31:45.841Z,98806.63
2022-11-22T11:34:13.712Z,98803.06
2022-11-22T11:36:41.519Z,98797.84
2022-11-22T11:39:09.340Z,98793.25
2022-11-22T11:41:42.080Z,98794.91
2022-11-22T11:44:11.279Z,98786.75
2022-11-22T11:46:39.115Z,98787.38
2022-11-22T11:49:06.862Z,98781.09
2022-11-22T11:51:34.686Z,98785.72
2022-11-22T11:54:02.664Z,98781.94
2022-11-22T11:56:30.491Z,98794.47
2022-11-22T11:58:58.263Z,98796.13
2022-11-22T12:01:26.043Z,98796.75
2022-11-22T12:03:53.852Z,98784.19
2022-11-22T12:06:21.705Z,98781.47
2022-11-22T12:08:49.538Z,98787.78
2022-11-22T12:11:17.350Z,98784.81
2022-11-22T12:14:12.172Z,98783.16
2022-11-22T12:16:32.884Z,98781.06
2022-11-22T12:19:00.724Z,98776.91
2022-11-22T12:21:28.584Z,98782.34
2022-11-22T12:24:13.218Z,98782.53
2022-11-22T12:26:44.194Z,98779.81
2022-11-22T12:29:11.979Z,98782.53
2022-11-22T12:31:39.750Z,98783.38
2022-11-22T12:34:07.532Z,98781.47
2022-11-22T12:36:35.316Z,98782.53
2022-11-22T12:39:03.113Z,98778.19
2022-11-22T12:41:30.911Z,98787.97
2022-11-22T12:43:58.720Z,98791.97
2022-11-22T12:46:26.666Z,98799.31
2022-11-22T12:48:54.917Z,98802.00
2022-11-22T12:51:22.737Z,98803.06
2022-11-22T12:53:50.539Z,98807.66
2022-11-22T12:56:18.378Z,98804.13
2022-11-22T12:58:46.176Z,98799.50
2022-11-22T13:01:13.981Z,98798.69
2022-11-22T13:03:41.841Z,98801.41
2022-11-22T13:06:09.638Z,98799.50
2022-11-22T13:08:37.455Z,98804.94
2022-11-22T13:11:05.181Z,98803.28
2022-11-22T13:13:32.975Z,98799.50
2022-11-22T13:16:00.803Z,98797.84
2022-11-22T13:18:28.595Z,98799.75
2022-11-22T13:20:56.391Z,98798.69
2022-11-22T13:23:24.252Z,98802.47
2022-11-22T13:25:52.041Z,98799.50
2022-11-22T13:28:19.794Z,98796.78
2022-11-22T13:30:47.645Z,98791.59
2022-11-22T13:33:15.430Z,98794.91
2022-11-22T13:35:43.184Z,98790.53
2022-11-22T13:38:10.975Z,98790.31
2022-11-22T13:40:39.147Z,98786.53
2022-11-22T13:43:12.273Z,98795.53
2022-11-22T13:45:41.647Z,98794.47
2022-11-22T13:48:09.433Z,98781.09
2022-11-22T13:50:37.390Z,98778.19
2022-11-22T13:53:05.239Z,98786.34
2022-11-22T13:55:36.005Z,98789.88
2022-11-22T13:58:09.415Z,98783.00
2022-11-22T14:00:37.435Z,98786.34
2022-11-22T14:03:05.218Z,98780.88
2022-11-22T14:05:38.040Z,98783.63
2022-11-22T14:08:08.986Z,98778.59
2022-11-22T14:10:36.725Z,98782.16
2022-11-22T14:13:04.469Z,98789.47
2022-11-22T14:15:32.431Z,98781.31
2022-11-22T14:18:00.249Z,98785.09
2022-11-22T14:20:28.027Z,98785.91
2022-11-22T14:22:55.855Z,98777.75
2022-11-22T14:25:23.641Z,98779.66
2022-11-22T14:27:51.497Z,98776.31
2022-11-22T14:30:19.415Z,98768.16
2022-11-22T14:32:47.229Z,98770.88
2022-11-22T14:35:15.004Z,98771.94
2022-11-22T14:37:42.841Z,98783.84
2022-11-22T14:40:10.640Z,98772.97
2022-11-22T14:42:40.096Z,98769.66
2022-11-22T14:45:07.860Z,98778.63
2022-11-22T14:47:35.657Z,98775.81
2022-11-22T14:50:03.455Z,98782.88
2022-11-22T14:52:31.396Z,98794.25
2022-11-22T14:54:59.457Z,98785.44
2022-11-22T14:57:27.258Z,98783.03
2022-11-22T14:59:54.996Z,98786.66
2022-11-22T15:02:22.809Z,98794.94
2022-11-22T15:09:21.190Z,98796.09
2022-11-22T15:09:22.561Z,98804.16
2022-11-22T15:10:26.882Z,98787.69
2022-11-22T15:12:54.686Z,98796.47
2022-11-22T15:57:28.656Z,98832.34
2022-11-22T15:59:56.471Z,98837.59
2022-11-22T16:02:25.317Z,98838.13
2022-11-22T16:06:10.013Z,98841.94
2022-11-22T16:07:42.219Z,98843.94
2022-11-22T16:10:10.196Z,98853.13
2022-11-22T16:12:37.941Z,98843.97
2022-11-22T16:15:05.694Z,98853.72
2022-11-22T16:17:34.417Z,98868.63
2022-11-22T16:20:02.235Z,98861.41
2022-11-22T16:22:30.400Z,98863.75
2022-11-22T16:24:58.190Z,98863.03
2022-11-22T16:27:26.023Z,98856.19
2022-11-22T16:29:54.029Z,98860.34
2022-11-22T16:32:21.768Z,98869.41
2022-11-22T16:34:59.023Z,98866.63
2022-11-22T16:37:39.653Z,98862.91
2022-11-22T16:40:09.195Z,98866.34
2022-11-22T16:42:38.046Z,98866.94
2022-11-22T16:45:05.870Z,98873.38
2022-11-22T16:47:33.682Z,98875.97
2022-11-22T16:50:01.480Z,98882.72
2022-11-22T16:52:29.336Z,98888.25
2022-11-22T16:54:57.119Z,98891.84
2022-11-22T16:57:24.868Z,98896.66
2022-11-22T16:59:54.356Z,98899.03
2022-11-22T17:02:22.137Z,98898.72
2022-11-22T17:04:53.367Z,98901.06
2022-11-22T17:07:21.318Z,98906.06
2022-11-22T17:09:49.135Z,98911.94
2022-11-22T17:12:17.222Z,98909.91
2022-11-22T17:14:50.603Z,98904.25
2022-11-22T17:17:18.645Z,98921.88
2022-11-22T17:19:53.090Z,98906.84
2022-11-22T17:22:21.636Z,98910.28
2022-11-22T17:24:49.458Z,98917.66
2022-11-22T17:27:17.254Z,98919.41
2022-11-22T17:29:52.161Z,98919.69
2022-11-22T17:32:20.111Z,98923.59
2022-11-22T17:34:47.926Z,98916.94
2022-11-22T17:37:15.908Z,98917.84
2022-11-22T17:39:43.750Z,98929.31
2022-11-22T17:42:12.198Z,98927.41
2022-11-22T17:44:40.206Z,98928.41
2022-11-22T17:47:08.950Z,98921.00
2022-11-22T17:49:36.905Z,98918.81
2022-11-22T17:52:04.890Z,98912.75
2022-11-22T17:54:32.872Z,98924.50
2022-11-22T17:57:00.628Z,98914.31
2022-11-22T17:59:29.193Z,98920.47
2022-11-22T18:01:57.181Z,98920.13
2022-11-22T18:04:26.040Z,98924.72
2022-11-22T18:06:53.954Z,98929.97
2022-11-22T18:09:21.860Z,98925.97
2022-11-22T18:11:53.882Z,98925.91
2022-11-22T18:14:23.379Z,98929.66
2022-11-22T18:16:51.142Z,98928.53
2022-11-22T18:19:19.111Z,98941.63
2022-11-22T18:21:46.875Z,98948.31
2022-11-22T18:24:14.787Z,98943.13
2022-11-22T18:26:42.766Z,98952.06
2022-11-22T18:29:41.181Z,98949.09
2022-11-22T18:31:58.735Z,98957.06
2022-11-22T18:34:26.575Z,98957.81
2022-11-22T18:37:00.467Z,98959.03
2022-11-22T18:39:29.969Z,98973.66
2022-11-22T18:41:58.157Z,98970.16
2022-11-22T18:44:25.973Z,98969.88
2022-11-22T18:46:54.168Z,98967.00
2022-11-22T18:49:21.927Z,98971.78
2022-11-22T18:51:49.789Z,98967.38
2022-11-22T18:54:18.344Z,98967.13
2022-11-22T18:56:46.156Z,98973.75
2022-11-22T18:59:15.070Z,98973.00
2022-11-22T19:01:42.860Z,98970.56
2022-11-22T19:04:11.038Z,98969.59
2022-11-22T19:06:38.809Z,98972.66
2022-11-22T19:09:07.054Z,98970.66
2022-11-22T19:11:35.438Z,98962.69
2022-11-22T19:14:05.242Z,98968.22
2022-11-22T19:16:35.905Z,98966.75
2022-11-22T19:19:03.758Z,98971.22
2022-11-22T19:21:31.646Z,98973.22
2022-11-22T19:23:59.415Z,98968.28
2022-11-22T19:26:27.358Z,98973.50
2022-11-22T19:29:02.884Z,98975.09
2022-11-22T19:31:31.614Z,98978.41
2022-11-22T19:33:59.563Z,98977.34
2022-11-22T19:36:32.749Z,98968.13
2022-11-22T19:39:02.281Z,98969.09
2022-11-22T19:41:31.000Z,98977.06
2022-11-22T19:43:58.821Z,98981.13
2022-11-22T19:46:26.563Z,98984.06
2022-11-22T19:48:54.435Z,98975.94
2022-11-22T19:51:22.213Z,98971.66
2022-11-22T19:53:53.322Z,98979.13
2022-11-22T19:56:30.213Z,98979.53
2022-11-22T19:58:58.102Z,98979.97
2022-11-22T20:01:25.879Z,98993.72
2022-11-22T20:03:53.862Z,98991.84
2022-11-22T20:06:21.624Z,98995.63
2022-11-22T20:08:49.392Z,98999.63
2022-11-22T20:11:17.184Z,99000.38
2022-11-22T20:13:44.924Z,98999.75
2022-11-22T20:16:12.960Z,98990.41
2022-11-22T20:18:40.783Z,98987.25
2022-11-22T20:21:09.187Z,98992.44
2022-11-22T20:23:37.239Z,98984.50
2022-11-22T20:26:04.952Z,98992.38
2022-11-22T20:28:35.715Z,98990.38
2022-11-22T20:31:03.705Z,98992.28
2022-11-22T20:33:31.400Z,98991.22
2022-11-22T20:35:59.159Z,98979.22
2022-11-22T20:38:26.875Z,98975.66
2022-11-22T20:40:54.653Z,98990.16
2022-11-22T20:43:24.570Z,98988.88
2022-11-22T20:45:52.333Z,98991.53
2022-11-22T20:48:20.526Z,98996.75
2022-11-22T20:50:48.283Z,98997.56
2022-11-22T20:53:16.090Z,98993.50
2022-11-22T20:55:44.049Z,98983.00
2022-11-22T20:58:11.794Z,98982.75
2022-11-22T21:00:40.864Z,98980.34
2022-11-22T21:03:11.463Z,98985.22
2022-11-22T21:05:39.295Z,98993.75
2022-11-22T21:08:07.036Z,98991.94
2022-11-22T21:10:34.820Z,98998.09
2022-11-22T21:13:02.606Z,98999.00
2022-11-22T21:15:30.369Z,98996.97
2022-11-22T21:18:24.144Z,99002.03
2022-11-22T21:20:52.456Z,99005.06
2022-11-22T21:23:20.391Z,98997.13
2022-11-22T21:25:50.558Z,99003.88
2022-11-22T21:28:18.332Z,99005.38
2022-11-22T21:30:46.090Z,99006.44
2022-11-22T21:33:13.913Z,99013.81
2022-11-22T21:35:45.026Z,99019.09
2022-11-22T21:38:13.527Z,99017.03
2022-11-22T21:40:41.333Z,99007.63
2022-11-22T21:43:09.074Z,99013.09
2022-11-22T21:45:36.806Z,99013.31
2022-11-22T21:48:04.696Z,99011.88
2022-11-22T21:50:32.626Z,99011.28
2022-11-22T21:53:00.374Z,99018.84
2022-11-22T21:55:30.923Z,99009.22
2022-11-22T21:57:58.736Z,99007.31
2022-11-22T22:00:26.592Z,99014.00
2022-11-22T22:02:54.302Z,99005.84
2022-11-22T22:05:25.143Z,99001.28
2022-11-22T22:07:53.399Z,99017.00
2022-11-22T22:10:21.177Z,99006.72
2022-11-22T22:12:48.960Z,99006.72
2022-11-22T22:15:16.800Z,99006.91
2022-11-22T22:17:45.875Z,99019.72
2022-11-22T22:20:13.620Z,99016.38
2022-11-22T22:22:41.634Z,99015.53
2022-11-22T22:25:09.353Z,99013.44
2022-11-22T22:27:37.118Z,99026.22
2022-11-22T22:30:05.030Z,99026.66
2022-11-22T22:32:32.708Z,99029.63
2022-11-22T22:35:00.563Z,99033.41
2022-11-22T22:37:28.265Z,99030.06
2022-11-22T22:39:56.007Z,99035.13
2022-11-22T22:42:23.715Z,99033.69
2022-11-22T22:44:51.682Z,99032.84
2022-11-22T22:47:19.491Z,99036.88
2022-11-22T22:49:47.207Z,99045.25
2022-11-22T22:52:14.969Z,99044.66
2022-11-22T22:54:42.758Z,99045.09
2022-11-22T22:57:10.588Z,99044.31
2022-11-22T22:59:38.758Z,99052.34
2022-11-22T23:02:06.791Z,99047.75
2022-11-22T23:04:34.542Z,99040.84
2022-11-22T23:07:04.622Z,99045.47
2022-11-22T23:09:32.590Z,99040.25
2022-11-22T23:12:12.722Z,99042.75
2022-11-22T23:14:40.842Z,99035.84
2022-11-22T23:17:09.092Z,99036.09
2022-11-22T23:19:36.878Z,99045.28
2022-11-22T23:22:04.849Z,99038.19
2022-11-22T23:24:32.867Z,99049.91
2022-11-22T23:27:00.680Z,99043.84
2022-11-22T23:29:28.595Z,99045.75
2022-11-22T23:31:56.549Z,99047.41
2022-11-22T23:34:24.529Z,99042.19
2022-11-22T23:36:52.306Z,99039.66
2022-11-22T23:39:20.175Z,99039.91
2022-11-22T23:41:48.061Z,99047.00
2022-11-22T23:44:15.824Z,99048.66
2022-11-22T23:46:43.780Z,99047.00
2022-11-22T23:49:11.566Z,99042.41
2022-11-22T23:51:39.403Z,99050.34
2022-11-22T23:54:07.194Z,99052.03
2022-11-22T23:56:35.694Z,99055.81
2022-11-22T23:59:03.620Z,99054.97
